TAF KFOE
KFOE 081725Z 0818/0918 17008KT P6SM SKC FM090300 18012G22KT P6SM BKN250 FM090600 16012G23KT P6SM BKN200 WS015/19045KT FM091200 21011KT P6SM SCT120=
METAR KFOE
WC KFOE
WS KFOE
WV KFOE